createdAt,value
2022-12-25T00:01:18.652Z,3.37
2022-12-25T00:03:45.525Z,3.50
2022-12-25T00:06:12.561Z,2.47
2022-12-25T00:08:40.103Z,3.13
2022-12-25T00:11:11.031Z,2.87
2022-12-25T00:13:38.276Z,2.17
2022-12-25T00:16:12.758Z,2.30
2022-12-25T00:18:39.456Z,3.37
2022-12-25T00:21:07.184Z,4.17
2022-12-25T00:23:35.465Z,3.63
2022-12-25T00:26:11.720Z,2.80
2022-12-25T00:28:38.819Z,3.07
2022-12-25T00:31:07.804Z,2.10
2022-12-25T00:33:36.340Z,2.40
2022-12-25T00:36:05.142Z,2.47
2022-12-25T00:38:32.524Z,2.30
2022-12-25T00:40:59.232Z,1.80
2022-12-25T00:43:25.900Z,2.30
2022-12-25T00:45:57.422Z,1.90
2022-12-25T00:48:24.584Z,1.90
2022-12-25T00:50:59.797Z,1.37
2022-12-25T00:53:27.901Z,3.10
2022-12-25T00:55:57.194Z,2.63
2022-12-25T00:58:25.461Z,2.13
2022-12-25T01:00:52.551Z,1.97
2022-12-25T01:03:19.303Z,1.97
2022-12-25T01:06:01.908Z,2.80
2022-12-25T01:08:31.546Z,1.87
2022-12-25T01:11:04.526Z,1.50
2022-12-25T01:13:32.453Z,2.20
2022-12-25T01:15:59.293Z,1.53
2022-12-25T01:18:26.883Z,1.13
2022-12-25T01:20:53.551Z,1.50
2022-12-25T01:23:20.236Z,2.03
2022-12-25T01:25:46.951Z,1.43
2022-12-25T01:28:13.727Z,2.00
2022-12-25T01:30:47.321Z,2.00
2022-12-25T01:33:14.005Z,2.50
2022-12-25T01:35:41.646Z,1.40
2022-12-25T01:38:08.329Z,4.13
2022-12-25T01:40:35.375Z,3.13
2022-12-25T01:43:02.026Z,1.43
2022-12-25T01:45:44.383Z,1.50
2022-12-25T01:48:19.613Z,1.53
2022-12-25T01:50:49.504Z,3.33
2022-12-25T01:53:16.327Z,2.73
2022-12-25T01:55:48.083Z,1.30
2022-12-25T01:58:15.399Z,2.00
2022-12-25T02:00:42.247Z,2.00
2022-12-25T02:03:09.029Z,1.33
2022-12-25T02:05:35.948Z,1.50
2022-12-25T02:08:11.115Z,2.13
2022-12-25T02:10:39.186Z,1.03
2022-12-25T02:13:07.792Z,1.50
2022-12-25T02:15:45.815Z,2.00
2022-12-25T02:18:43.821Z,5.07
2022-12-25T02:21:27.899Z,1.97
2022-12-25T02:24:31.357Z,1.07
2022-12-25T02:27:28.057Z,1.40
2022-12-25T02:30:05.823Z,0.83
2022-12-25T02:33:18.393Z,2.73
2022-12-25T02:35:53.459Z,1.40
2022-12-25T02:38:27.132Z,1.03
2022-12-25T02:40:59.733Z,1.20
2022-12-25T02:43:57.616Z,0.90
2022-12-25T02:46:44.585Z,0.97
2022-12-25T02:49:41.861Z,1.97
2022-12-25T02:52:40.696Z,3.37
2022-12-25T02:55:31.600Z,2.13
2022-12-25T02:58:22.804Z,1.13
2022-12-25T03:01:13.774Z,0.80
2022-12-25T03:04:00.636Z,1.83
2022-12-25T03:06:42.854Z,0.87
2022-12-25T03:09:39.480Z,1.10
2022-12-25T03:12:13.961Z,0.80
2022-12-25T03:14:59.344Z,1.07
2022-12-25T03:17:26.473Z,0.77
2022-12-25T03:20:12.009Z,1.23
2022-12-25T03:23:01.248Z,1.67
2022-12-25T03:25:47.720Z,1.00
2022-12-25T03:28:15.003Z,1.70
2022-12-25T03:31:21.868Z,1.57
2022-12-25T03:34:31.519Z,1.40
2022-12-25T03:37:25.294Z,0.67
2022-12-25T03:40:25.833Z,1.07
2022-12-25T03:43:34.451Z,1.53
2022-12-25T03:46:27.030Z,1.70
2022-12-25T03:49:18.067Z,1.33
2022-12-25T03:52:05.408Z,3.13
2022-12-25T03:54:55.152Z,1.73
2022-12-25T03:57:40.519Z,0.87
2022-12-25T04:00:26.564Z,1.00
2022-12-25T04:03:12.005Z,1.97
2022-12-25T04:05:57.567Z,2.40
2022-12-25T04:08:42.636Z,1.10
2022-12-25T04:11:27.550Z,3.80
2022-12-25T04:14:12.888Z,1.30
2022-12-25T04:16:58.074Z,1.20
2022-12-25T04:19:42.973Z,1.77
2022-12-25T04:22:28.175Z,3.83
2022-12-25T04:25:13.609Z,1.17
2022-12-25T04:27:58.940Z,2.10
2022-12-25T04:30:44.440Z,1.43
2022-12-25T04:33:29.608Z,1.07
2022-12-25T04:36:14.565Z,3.00
2022-12-25T04:38:41.638Z,1.33
2022-12-25T04:41:12.906Z,2.17
2022-12-25T04:43:40.035Z,1.20
2022-12-25T04:46:07.159Z,3.57
2022-12-25T04:48:35.910Z,2.70
2022-12-25T04:51:19.323Z,1.23
2022-12-25T04:53:48.748Z,1.10
2022-12-25T04:56:16.415Z,2.40
2022-12-25T04:58:43.887Z,1.00
2022-12-25T05:01:11.191Z,1.53
2022-12-25T05:03:38.082Z,2.43
2022-12-25T05:06:07.090Z,1.33
2022-12-25T05:08:34.998Z,1.23
2022-12-25T05:11:09.608Z,1.60
2022-12-25T05:13:36.709Z,1.10
2022-12-25T05:16:21.770Z,1.20
2022-12-25T05:18:50.805Z,1.27
2022-12-25T05:21:18.600Z,1.60
2022-12-25T05:23:49.133Z,2.50
2022-12-25T05:26:21.441Z,1.13
2022-12-25T05:28:48.608Z,1.20
2022-12-25T05:31:15.629Z,3.50
2022-12-25T05:33:42.372Z,1.37
2022-12-25T05:36:10.948Z,1.30
2022-12-25T05:38:38.432Z,1.17
2022-12-25T05:41:05.547Z,2.00
2022-12-25T05:43:32.809Z,1.20
2022-12-25T05:46:06.048Z,2.37
2022-12-25T05:48:35.003Z,1.33
2022-12-25T05:51:10.267Z,2.33
2022-12-25T05:53:37.919Z,1.40
2022-12-25T05:56:07.342Z,1.40
2022-12-25T05:58:35.314Z,0.70
2022-12-25T06:01:02.429Z,1.33
2022-12-25T06:03:29.398Z,0.80
2022-12-25T06:05:56.395Z,1.87
2022-12-25T06:08:23.214Z,1.40
2022-12-25T06:10:50.008Z,1.60
2022-12-25T06:13:16.760Z,0.80
2022-12-25T06:15:43.519Z,1.03
2022-12-25T06:18:10.470Z,1.10
2022-12-25T06:20:40.986Z,0.90
2022-12-25T06:23:07.830Z,1.00
2022-12-25T06:25:34.527Z,1.20
2022-12-25T06:28:01.213Z,1.10
2022-12-25T06:30:27.909Z,2.10
2022-12-25T06:32:54.660Z,2.20
2022-12-25T06:35:22.438Z,1.77
2022-12-25T06:37:49.229Z,1.20
2022-12-25T06:40:16.653Z,2.10
2022-12-25T06:42:43.341Z,2.03
2022-12-25T06:45:11.158Z,2.73
2022-12-25T06:47:38.543Z,2.60
2022-12-25T06:50:06.564Z,2.00
2022-12-25T06:52:33.838Z,1.23
2022-12-25T06:55:00.727Z,1.50
2022-12-25T06:57:27.484Z,1.73
2022-12-25T06:59:55.487Z,2.23
2022-12-25T07:02:24.194Z,1.40
2022-12-25T07:04:51.782Z,1.83
2022-12-25T07:07:18.499Z,1.50
2022-12-25T07:09:45.234Z,1.40
2022-12-25T07:12:18.721Z,1.03
2022-12-25T07:14:48.932Z,1.53
2022-12-25T07:17:19.561Z,1.43
2022-12-25T07:19:47.149Z,2.47
2022-12-25T07:22:14.551Z,1.43
2022-12-25T07:24:41.490Z,2.30
2022-12-25T07:27:08.731Z,1.50
2022-12-25T07:29:35.614Z,2.23
2022-12-25T07:32:02.504Z,1.93
2022-12-25T07:34:29.281Z,1.57
2022-12-25T07:36:56.029Z,2.20
2022-12-25T07:39:23.762Z,1.60
2022-12-25T07:41:51.148Z,1.60
2022-12-25T07:44:17.976Z,2.20
2022-12-25T07:46:44.791Z,2.47
2022-12-25T07:49:12.263Z,2.53
2022-12-25T07:51:39.309Z,2.87
2022-12-25T07:54:06.201Z,5.27
2022-12-25T07:56:32.857Z,1.70
2022-12-25T07:58:59.553Z,5.53
2022-12-25T08:01:27.923Z,1.80
2022-12-25T08:03:57.137Z,1.60
2022-12-25T08:06:29.545Z,1.57
2022-12-25T08:08:57.677Z,1.57
2022-12-25T08:11:24.375Z,1.93
2022-12-25T08:13:51.121Z,2.60
2022-12-25T08:16:17.904Z,2.00
2022-12-25T08:18:44.761Z,3.87
2022-12-25T08:21:13.691Z,2.17
2022-12-25T08:23:43.284Z,2.53
2022-12-25T08:26:14.343Z,2.10
2022-12-25T08:28:41.370Z,1.60
2022-12-25T08:31:20.341Z,3.27
2022-12-25T08:33:47.861Z,4.57
2022-12-25T08:36:15.164Z,3.50
2022-12-25T08:38:42.129Z,3.23
2022-12-25T08:41:10.149Z,3.40
2022-12-25T08:43:37.112Z,3.00
2022-12-25T08:46:04.404Z,2.83
2022-12-25T08:48:31.607Z,2.93
2022-12-25T08:50:58.816Z,3.97
2022-12-25T08:53:25.810Z,5.27
2022-12-25T08:56:06.378Z,4.10
2022-12-25T08:58:33.611Z,2.90
2022-12-25T09:01:00.635Z,3.40
2022-12-25T09:03:27.726Z,2.90
2022-12-25T09:05:55.150Z,4.20
2022-12-25T09:08:22.245Z,3.43
2022-12-25T09:10:49.279Z,3.73
2022-12-25T09:13:16.286Z,3.33
2022-12-25T09:15:43.472Z,3.60
2022-12-25T09:18:10.641Z,3.90
2022-12-25T09:20:37.812Z,2.90
2022-12-25T09:23:09.928Z,3.43
2022-12-25T09:25:40.527Z,2.97
2022-12-25T09:28:07.638Z,3.93
2022-12-25T09:30:34.767Z,3.70
2022-12-25T09:33:01.902Z,4.83
2022-12-25T09:35:29.013Z,2.93
2022-12-25T09:37:56.115Z,2.97
2022-12-25T09:40:24.146Z,3.57
2022-12-25T09:42:53.866Z,2.70
2022-12-25T09:45:32.947Z,4.77
2022-12-25T09:48:00.155Z,3.17
2022-12-25T09:50:31.998Z,3.13
2022-12-25T09:53:05.539Z,3.30
2022-12-25T09:55:34.838Z,2.83
2022-12-25T09:58:03.011Z,2.97
2022-12-25T10:00:34.229Z,3.20
2022-12-25T10:03:27.516Z,3.50
2022-12-25T10:06:12.989Z,3.80
2022-12-25T10:08:58.769Z,3.17
2022-12-25T10:11:25.856Z,2.87
2022-12-25T10:13:58.871Z,4.10
2022-12-25T10:16:26.003Z,3.50
2022-12-25T10:18:59.308Z,3.87
2022-12-25T10:21:28.084Z,3.70
2022-12-25T10:24:07.599Z,3.37
2022-12-25T10:26:35.517Z,3.93
2022-12-25T10:29:06.164Z,3.93
2022-12-25T10:31:35.308Z,5.17
2022-12-25T10:34:02.838Z,4.13
2022-12-25T10:36:30.492Z,4.53
2022-12-25T10:38:57.671Z,3.43
2022-12-25T10:41:31.532Z,5.60
2022-12-25T10:43:58.645Z,4.47
2022-12-25T10:46:27.043Z,3.47
2022-12-25T10:48:58.254Z,3.57
2022-12-25T10:51:34.053Z,4.00
2022-12-25T10:54:02.678Z,3.30
2022-12-25T10:56:30.144Z,3.07
2022-12-25T10:59:07.155Z,4.10
2022-12-25T11:01:34.388Z,3.10
2022-12-25T11:04:01.752Z,3.90
2022-12-25T11:06:30.419Z,3.67
2022-12-25T11:08:58.336Z,3.30
2022-12-25T11:11:26.033Z,3.57
2022-12-25T11:13:57.869Z,2.87
2022-12-25T11:16:39.924Z,3.53
2022-12-25T11:19:39.414Z,3.23
2022-12-25T11:22:17.558Z,3.40
2022-12-25T11:24:44.645Z,4.83
2022-12-25T11:27:25.885Z,2.50
2022-12-25T11:30:00.212Z,3.40
2022-12-25T11:32:31.815Z,2.80
2022-12-25T11:34:59.885Z,3.30
2022-12-25T11:37:39.086Z,3.20
2022-12-25T11:40:07.031Z,2.97
2022-12-25T11:42:36.144Z,3.57
2022-12-25T11:45:06.482Z,3.80
2022-12-25T11:47:42.546Z,3.00
2022-12-25T11:50:28.380Z,3.90
2022-12-25T11:52:56.040Z,3.20
2022-12-25T11:55:23.188Z,3.53
2022-12-25T11:57:55.534Z,2.63
2022-12-25T12:00:22.837Z,3.33
2022-12-25T12:02:59.079Z,2.93
2022-12-25T12:05:39.376Z,3.47
2022-12-25T12:08:06.970Z,2.93
2022-12-25T12:10:42.179Z,2.37
2022-12-25T12:13:09.239Z,2.80
2022-12-25T12:15:44.583Z,2.93
2022-12-25T12:18:17.741Z,2.60
2022-12-25T12:20:44.926Z,3.40
2022-12-25T12:23:16.175Z,2.30
2022-12-25T12:25:44.327Z,2.73
2022-12-25T12:28:14.541Z,2.97
2022-12-25T12:30:41.714Z,3.57
2022-12-25T12:33:19.215Z,3.10
2022-12-25T12:35:46.621Z,2.83
2022-12-25T12:38:13.689Z,4.70
2022-12-25T12:40:43.599Z,5.10
2022-12-25T12:43:28.655Z,3.30
2022-12-25T12:45:57.137Z,2.70
2022-12-25T12:48:27.351Z,3.90
2022-12-25T12:51:04.903Z,3.07
2022-12-25T12:53:32.800Z,3.13
2022-12-25T12:56:19.179Z,3.40
2022-12-25T12:58:50.578Z,2.70
2022-12-25T13:01:25.360Z,2.93
2022-12-25T13:03:52.485Z,2.67
2022-12-25T13:06:42.949Z,2.50
2022-12-25T13:09:36.815Z,3.70
2022-12-25T13:12:08.361Z,2.83
2022-12-25T13:14:37.953Z,3.17
2022-12-25T13:17:07.752Z,3.60
2022-12-25T13:19:36.382Z,2.63
2022-12-25T13:22:05.223Z,5.30
2022-12-25T13:24:36.209Z,2.70
2022-12-25T13:27:20.062Z,2.90
2022-12-25T13:29:47.185Z,4.60
2022-12-25T13:32:22.993Z,3.03
2022-12-25T13:34:50.564Z,3.17
2022-12-25T13:37:19.446Z,3.43
2022-12-25T13:39:56.476Z,2.90
2022-12-25T13:42:25.777Z,3.37
2022-12-25T13:44:55.559Z,4.93
2022-12-25T13:47:33.199Z,3.60
2022-12-25T13:50:01.369Z,3.60
2022-12-25T13:52:32.736Z,3.57
2022-12-25T13:55:01.363Z,6.80
2022-12-25T13:57:31.001Z,4.13
2022-12-25T13:59:58.496Z,3.93
2022-12-25T14:02:29.798Z,6.83
2022-12-25T14:04:57.029Z,5.60
2022-12-25T14:07:24.465Z,4.97
2022-12-25T14:09:54.649Z,6.27
2022-12-25T14:12:22.733Z,4.83
2022-12-25T14:14:50.662Z,4.37
2022-12-25T14:17:17.913Z,5.63
2022-12-25T14:19:45.085Z,5.40
2022-12-25T14:22:17.991Z,5.27
2022-12-25T14:24:45.089Z,5.30
2022-12-25T14:27:18.589Z,5.40
2022-12-25T14:29:47.553Z,5.50
2022-12-25T14:32:16.875Z,5.00
2022-12-25T14:34:46.305Z,5.20
2022-12-25T14:37:17.278Z,5.83
2022-12-25T14:39:48.026Z,5.00
2022-12-25T14:42:24.178Z,5.10
2022-12-25T14:45:03.424Z,4.77
2022-12-25T14:47:31.888Z,5.93
2022-12-25T14:49:59.800Z,5.00
2022-12-25T14:52:42.613Z,5.03
2022-12-25T14:55:18.694Z,5.83
2022-12-25T14:57:48.524Z,5.27
2022-12-25T15:00:24.136Z,5.13
2022-12-25T15:02:52.553Z,5.30
2022-12-25T15:05:25.128Z,5.67
2022-12-25T15:08:01.168Z,5.20
2022-12-25T15:10:59.095Z,5.93
2022-12-25T15:13:17.874Z,6.00
2022-12-25T15:15:51.083Z,5.90
2022-12-25T15:18:18.332Z,6.00
2022-12-25T15:20:45.540Z,5.83
2022-12-25T15:23:20.364Z,6.03
2022-12-25T15:25:47.816Z,6.60
2022-12-25T15:28:15.125Z,5.13
2022-12-25T15:30:42.415Z,6.63
2022-12-25T15:33:16.509Z,5.47
2022-12-25T15:35:44.389Z,6.30
2022-12-25T15:38:12.536Z,5.30
2022-12-25T15:40:40.192Z,5.40
2022-12-25T15:43:14.589Z,6.37
2022-12-25T15:45:54.597Z,6.63
2022-12-25T15:48:21.750Z,5.77
2022-12-25T15:50:49.330Z,6.40
2022-12-25T15:53:16.469Z,5.13
2022-12-25T15:55:43.573Z,6.10
2022-12-25T15:58:13.155Z,5.77
2022-12-25T16:00:40.315Z,5.90
2022-12-25T16:03:07.727Z,6.03
2022-12-25T16:05:35.040Z,6.07
2022-12-25T16:08:02.142Z,5.83
2022-12-25T16:10:34.875Z,6.57
2022-12-25T16:13:05.436Z,6.23
2022-12-25T16:15:32.612Z,5.63
2022-12-25T16:17:59.845Z,6.20
2022-12-25T16:20:27.041Z,6.83
2022-12-25T16:22:54.143Z,6.80
2022-12-25T16:25:21.263Z,5.90
2022-12-25T16:27:48.591Z,5.53
2022-12-25T16:30:16.666Z,5.90
2022-12-25T16:32:44.504Z,6.20
2022-12-25T16:35:12.183Z,6.03
2022-12-25T16:37:39.491Z,6.10
2022-12-25T16:40:08.421Z,7.00
2022-12-25T16:42:35.674Z,5.57
2022-12-25T16:45:02.815Z,6.13
2022-12-25T16:47:30.672Z,6.40
2022-12-25T16:49:58.035Z,6.60
2022-12-25T16:52:25.185Z,6.47
2022-12-25T16:54:52.310Z,6.00
2022-12-25T16:57:19.424Z,7.00
2022-12-25T16:59:46.757Z,7.23
2022-12-25T17:02:17.469Z,6.60
2022-12-25T17:04:45.117Z,7.87
2022-12-25T17:07:12.902Z,7.43
2022-12-25T17:09:44.162Z,8.20
2022-12-25T17:12:11.800Z,8.33
2022-12-25T17:14:38.982Z,7.47
2022-12-25T17:17:06.232Z,7.60
2022-12-25T17:19:33.400Z,6.43
2022-12-25T17:22:00.511Z,6.70
2022-12-25T17:24:27.802Z,6.63
2022-12-25T17:26:55.080Z,6.77
2022-12-25T17:29:22.953Z,7.10
2022-12-25T17:31:50.686Z,6.30
2022-12-25T17:34:17.850Z,7.27
2022-12-25T17:36:44.965Z,6.60
2022-12-25T17:39:12.382Z,6.63
2022-12-25T17:41:42.283Z,6.60
2022-12-25T17:44:11.044Z,6.83
2022-12-25T17:46:38.262Z,6.53
2022-12-25T17:49:05.747Z,7.30
2022-12-25T17:51:32.856Z,7.30
2022-12-25T17:54:03.025Z,7.43
2022-12-25T17:56:30.262Z,8.20
2022-12-25T17:58:58.616Z,6.77
2022-12-25T18:01:26.669Z,7.10
2022-12-25T18:03:54.153Z,7.60
2022-12-25T18:06:22.756Z,11.70
2022-12-25T18:08:50.180Z,18.93
2022-12-25T18:11:20.259Z,26.33
2022-12-25T18:13:49.937Z,30.03
2022-12-25T18:16:17.709Z,30.00
2022-12-25T18:18:51.363Z,26.70
2022-12-25T18:21:19.268Z,26.63
2022-12-25T18:23:46.439Z,25.73
2022-12-25T18:26:13.615Z,20.80
2022-12-25T18:28:42.583Z,21.13
2022-12-25T18:31:21.332Z,20.13
2022-12-25T18:33:48.889Z,20.43
2022-12-25T18:36:17.346Z,19.00
2022-12-25T18:38:44.561Z,18.80
2022-12-25T18:41:11.952Z,17.10
2022-12-25T18:43:52.748Z,16.87
2022-12-25T18:46:24.052Z,14.57
2022-12-25T18:48:51.782Z,15.77
2022-12-25T18:51:19.256Z,14.13
2022-12-25T18:53:46.414Z,12.80
2022-12-25T18:56:17.747Z,14.43
2022-12-25T18:58:45.433Z,12.37
2022-12-25T19:01:15.826Z,12.53
2022-12-25T19:03:43.496Z,12.63
2022-12-25T19:06:16.665Z,12.00
2022-12-25T19:08:43.752Z,11.67
2022-12-25T19:11:10.833Z,12.37
2022-12-25T19:13:37.977Z,11.90
2022-12-25T19:16:05.565Z,11.00
2022-12-25T19:18:32.709Z,10.93
2022-12-25T19:21:06.964Z,11.50
2022-12-25T19:23:34.666Z,10.67
2022-12-25T19:26:03.837Z,10.10
2022-12-25T19:28:30.956Z,10.37
2022-12-25T19:30:59.993Z,10.63
2022-12-25T19:33:27.668Z,9.73
2022-12-25T19:35:54.779Z,10.20
2022-12-25T19:38:21.853Z,9.37
2022-12-25T19:41:01.361Z,8.40
2022-12-25T19:43:29.785Z,9.60
2022-12-25T19:45:57.418Z,9.17
2022-12-25T19:48:24.617Z,8.60
2022-12-25T19:50:51.881Z,9.27
2022-12-25T19:53:21.371Z,8.77
2022-12-25T19:55:48.613Z,8.80
2022-12-25T19:58:15.783Z,8.43
2022-12-25T20:00:42.943Z,8.80
2022-12-25T20:03:10.506Z,7.80
2022-12-25T20:05:38.065Z,8.70
2022-12-25T20:08:05.411Z,8.60
2022-12-25T20:10:32.519Z,8.50
2022-12-25T20:12:59.625Z,8.37
2022-12-25T20:15:26.712Z,8.80
2022-12-25T20:17:54.443Z,7.53
2022-12-25T20:20:21.597Z,8.00
2022-12-25T20:22:48.680Z,7.90
2022-12-25T20:25:15.797Z,7.80
2022-12-25T20:27:42.887Z,8.20
2022-12-25T20:30:10.384Z,7.73
2022-12-25T20:32:37.701Z,8.00
2022-12-25T20:35:04.889Z,8.50
2022-12-25T20:37:31.972Z,8.13
2022-12-25T20:39:59.072Z,8.70
2022-12-25T20:42:26.219Z,8.10
2022-12-25T20:44:53.287Z,7.77
2022-12-25T20:47:20.407Z,8.17
2022-12-25T20:49:47.755Z,7.23
2022-12-25T20:52:14.858Z,7.50
2022-12-25T20:54:42.443Z,7.83
2022-12-25T20:57:09.689Z,7.03
2022-12-25T20:59:37.887Z,7.00
2022-12-25T21:02:05.288Z,7.70
2022-12-25T21:04:32.552Z,8.40
2022-12-25T21:07:00.290Z,7.60
2022-12-25T21:09:27.468Z,7.23
2022-12-25T21:11:54.590Z,7.37
2022-12-25T21:14:21.672Z,7.03
2022-12-25T21:16:50.070Z,6.97
2022-12-25T21:19:17.204Z,7.20
2022-12-25T21:21:44.451Z,8.47
2022-12-25T21:24:11.608Z,8.30
2022-12-25T21:26:43.034Z,7.50
2022-12-25T21:29:13.276Z,6.80
2022-12-25T21:31:59.140Z,7.80
2022-12-25T21:34:26.282Z,6.67
2022-12-25T21:36:53.361Z,7.70
2022-12-25T21:39:20.517Z,7.10
2022-12-25T21:41:47.643Z,6.70
2022-12-25T21:44:14.755Z,6.70
2022-12-25T21:46:41.948Z,7.40
2022-12-25T21:49:10.200Z,6.97
2022-12-25T21:51:56.509Z,7.30
2022-12-25T21:54:24.073Z,6.83
2022-12-25T21:56:51.332Z,7.50
2022-12-25T21:59:19.855Z,7.80
2022-12-25T22:01:47.105Z,7.70
2022-12-25T22:04:15.114Z,7.40
2022-12-25T22:07:00.910Z,6.80
2022-12-25T22:09:28.119Z,6.93
2022-12-25T22:12:14.075Z,6.37
2022-12-25T22:14:54.284Z,6.87
2022-12-25T22:17:42.676Z,6.60
2022-12-25T22:20:12.273Z,7.80
2022-12-25T22:22:39.339Z,7.33
2022-12-25T22:25:07.018Z,6.83
2022-12-25T22:27:35.014Z,6.70
2022-12-25T22:30:02.447Z,6.90
2022-12-25T22:32:29.702Z,6.93
2022-12-25T22:34:56.843Z,6.90
2022-12-25T22:37:24.132Z,6.50
2022-12-25T22:39:51.255Z,7.00
2022-12-25T22:42:18.551Z,7.00
2022-12-25T22:44:47.762Z,7.00
2022-12-25T22:47:15.308Z,6.70
2022-12-25T22:49:42.431Z,6.63
2022-12-25T22:52:10.403Z,7.27
2022-12-25T22:54:37.841Z,6.30
2022-12-25T22:57:05.359Z,7.07
2022-12-25T22:59:32.951Z,6.63
2022-12-25T23:02:00.191Z,6.40
2022-12-25T23:04:28.235Z,6.73
2022-12-25T23:06:55.584Z,6.83
2022-12-25T23:09:27.504Z,6.53
2022-12-25T23:11:57.959Z,7.00
2022-12-25T23:14:40.959Z,7.23
2022-12-25T23:17:31.239Z,7.27
2022-12-25T23:20:18.156Z,6.40
2022-12-25T23:23:04.280Z,6.57
2022-12-25T23:25:50.429Z,6.60
2022-12-25T23:28:37.493Z,6.23
2022-12-25T23:31:04.724Z,6.97
2022-12-25T23:33:31.935Z,7.10
2022-12-25T23:35:59.055Z,6.10
2022-12-25T23:38:26.173Z,6.67
2022-12-25T23:40:53.282Z,5.90
2022-12-25T23:43:20.354Z,6.47
2022-12-25T23:45:47.440Z,6.10
2022-12-25T23:48:14.550Z,7.03
2022-12-25T23:50:41.693Z,6.53
2022-12-25T23:53:08.808Z,6.67
2022-12-25T23:55:36.270Z,6.40
2022-12-25T23:58:03.364Z,5.77
